Terminal Aerodrome Forecast
Issued by NWS

Home | Current Version | Previous Version | Text Only | Print | Product List | Glossary On
Versions: 1 2 3 4 5 6 7 8 9 10 11 12 13 14 15 16 17 18 19 20 21 22 23 24 25 26 27 28 29 30 31 32 33 34 35
124
FTUS43 KDMX 191137
TAFFOD
TAF
KFOD 191137Z 1912/2012 16007KT 2SM BR OVC004
     FM191500 15007KT 4SM BR OVC005
     FM191700 14006KT 6SM BR BKN011
     FM200400 13004KT 2SM BR OVC005=

USA.gov is the U.S. government's official web portal to all federal, state and local government web resources and services.